Time;durP1;ratioP1;P1;durP2;ratioP2;P2;SDS_P1;SDS_P2;PMS_P1;PMS_P2;Temp;Humidity;BMP_temperature;BMP_pressure;BME280_temperature;BME280_humidity;BME280_pressure;Samples;Min_cycle;Max_cycle;Signal;HPM_P1;HPM_P2
2021/11/27 00:00:20;;;;;;;;;;;;;;;-0.04;83.54;93939.72;5096228;28;20435;-75
2021/11/27 00:02:46;;;;;;;;;;;;;;;-0.05;83.31;93932.97;5077847;28;19959;-75
2021/11/27 00:05:13;;;;;;;;;;;;;;;-0.10;83.35;93919.97;5095857;28;20385;-76
2021/11/27 00:07:39;;;;;;;;;;;;;;;-0.14;83.50;93919.59;5095198;28;19970;-76
2021/11/27 00:10:06;;;;;;;;;;;;;;;-0.16;83.45;93916.44;5096019;28;19952;-75
2021/11/27 00:12:32;;;;;;;;;;;;;;;-0.14;83.46;93917.03;5095095;28;19973;-76
2021/11/27 00:14:58;;;;;;;;;;;;;;;-0.13;83.63;93915.22;5095632;28;20318;-75
2021/11/27 00:17:24;;;;;;;;;;;;;;;-0.14;83.51;93909.28;5095722;28;19966;-75
2021/11/27 00:19:50;;;;;;;;;;;;;;;-0.15;83.62;93904.34;5096110;28;19959;-75
2021/11/27 00:22:16;;;;;;;;;;;;;;;-0.14;83.59;93905.94;5095790;28;19952;-76
2021/11/27 00:24:42;;;;;;;;;;;;;;;-0.13;83.63;93905.69;5095539;28;19970;-75
2021/11/27 00:27:09;;;;;;;;;;;;;;;-0.11;83.86;93906.28;5094060;28;20413;-75
2021/11/27 00:29:35;;;;;;;;;;;;;;;-0.05;83.98;93902.06;5095652;28;19962;-75
2021/11/27 00:32:01;;;;;;;;;;;;;;;-0.02;83.64;93906.81;5095552;28;20067;-75
2021/11/27 00:34:27;;;;;;;;;;;;;;;0.01;83.50;93903.00;5095282;28;19988;-75
2021/11/27 00:36:53;;;;;;;;;;;;;;;0.00;83.54;93894.50;5095831;28;20394;-75
2021/11/27 00:39:19;;;;;;;;;;;;;;;0.02;83.32;93899.41;5095268;28;20338;-76
2021/11/27 00:41:45;;;;;;;;;;;;;;;0.03;83.34;93893.28;5095384;28;19954;-75
2021/11/27 00:44:12;;;;;;;;;;;;;;;0.00;82.90;93884.19;5095007;28;20439;-76
2021/11/27 00:46:38;;;;;;;;;;;;;;;-0.04;83.05;93880.47;5095381;28;19956;-75
2021/11/27 00:49:04;;;;;;;;;;;;;;;-0.04;83.03;93885.63;5095186;28;20125;-75
2021/11/27 00:51:30;;;;;;;;;;;;;;;-0.07;83.03;93888.63;5095063;28;19958;-75
2021/11/27 00:53:56;;;;;;;;;;;;;;;-0.09;83.24;93893.97;5094526;28;19984;-76
2021/11/27 00:56:23;;;;;;;;;;;;;;;-0.10;83.32;93883.91;5095041;28;19967;-75
2021/11/27 00:58:49;;;;;;;;;;;;;;;-0.13;83.38;93882.53;5094874;28;19951;-75
2021/11/27 01:01:21;;;;;;;;;;;;;;;-0.15;83.54;93878.59;5094791;28;19955;-76
2021/11/27 01:03:47;;;;;;;;;;;;;;;-0.17;83.72;93873.66;5095055;28;20316;-76
2021/11/27 01:06:14;;;;;;;;;;;;;;;-0.17;84.07;93871.06;5094758;28;19960;-76
2021/11/27 01:08:40;;;;;;;;;;;;;;;-0.18;84.34;93866.94;5094708;28;19963;-75
2021/11/27 01:11:10;;;;;;;;;;;;;;;-0.20;84.51;93861.22;5076333;28;19956;-75
2021/11/27 01:13:37;;;;;;;;;;;;;;;-0.22;85.10;93858.84;5094628;28;19976;-76
2021/11/27 01:16:03;;;;;;;;;;;;;;;-0.20;85.33;93868.94;5094691;28;19963;-75
2021/11/27 01:18:29;;;;;;;;;;;;;;;-0.24;85.90;93858.28;5094458;28;19963;-75
2021/11/27 01:20:57;;;;;;;;;;;;;;;-0.26;86.18;93862.84;5094732;28;19955;-75
2021/11/27 01:23:24;;;;;;;;;;;;;;;-0.24;86.20;93860.84;5093442;28;20412;-76
2021/11/27 01:25:51;;;;;;;;;;;;;;;-0.24;86.53;93860.06;5094494;28;19971;-76
2021/11/27 01:28:18;;;;;;;;;;;;;;;-0.22;86.80;93864.00;5092919;28;19963;-75
2021/11/27 01:30:45;;;;;;;;;;;;;;;-0.23;87.94;93865.00;5094482;28;19958;-75
2021/11/27 01:33:12;;;;;;;;;;;;;;;-0.23;88.60;93857.28;5094115;28;20445;-75
2021/11/27 01:35:38;;;;;;;;;;;;;;;-0.22;88.27;93855.50;5094227;28;20403;-75
2021/11/27 01:38:03;;;;;;;;;;;;;;;-0.21;89.19;93852.72;5094261;28;19975;-76
2021/11/27 01:40:29;;;;;;;;;;;;;;;-0.24;89.08;93847.97;5094507;28;20472;-76
2021/11/27 01:42:55;;;;;;;;;;;;;;;-0.27;88.78;93845.06;5093194;28;19970;-75
2021/11/27 01:45:22;;;;;;;;;;;;;;;-0.28;88.70;93854.53;5094237;28;20329;-75
2021/11/27 01:47:53;;;;;;;;;;;;;;;-0.25;88.87;93849.00;5093512;28;19956;-75
2021/11/27 01:50:20;;;;;;;;;;;;;;;-0.25;88.58;93840.47;5093986;28;19948;-75
2021/11/27 01:52:46;;;;;;;;;;;;;;;-0.26;88.87;93846.63;5093622;28;20044;-76
2021/11/27 01:55:13;;;;;;;;;;;;;;;-0.25;89.16;93837.91;5094412;28;19986;-76
2021/11/27 01:57:41;;;;;;;;;;;;;;;-0.26;89.13;93834.53;5094635;28;19980;-75
2021/11/27 02:00:08;;;;;;;;;;;;;;;-0.26;90.20;93842.25;5094172;28;19958;-75
2021/11/27 02:02:34;;;;;;;;;;;;;;;-0.27;89.80;93832.97;5093930;28;19960;-76
2021/11/27 02:05:00;;;;;;;;;;;;;;;-0.26;90.09;93833.75;5094035;28;20001;-76
2021/11/27 02:07:26;;;;;;;;;;;;;;;-0.25;89.68;93830.19;5094452;28;19948;-75
2021/11/27 02:09:52;;;;;;;;;;;;;;;-0.26;89.79;93819.06;5093863;28;20051;-75
2021/11/27 02:12:18;;;;;;;;;;;;;;;-0.23;89.50;93802.44;5093862;28;20520;-75
2021/11/27 02:14:44;;;;;;;;;;;;;;;-0.22;89.58;93803.97;5076074;28;20031;-75
2021/11/27 02:17:10;;;;;;;;;;;;;;;-0.21;89.47;93808.13;5093719;28;19949;-75
2021/11/27 02:19:37;;;;;;;;;;;;;;;-0.16;89.45;93802.34;5093766;28;20336;-75
2021/11/27 02:22:04;;;;;;;;;;;;;;;-0.12;89.64;93795.75;5093768;28;19951;-75
2021/11/27 02:24:29;;;;;;;;;;;;;;;-0.10;89.46;93793.75;5093402;28;19962;-75
2021/11/27 02:26:55;;;;;;;;;;;;;;;-0.06;89.74;93797.47;5093641;28;19969;-75
2021/11/27 02:29:24;;;;;;;;;;;;;;;-0.04;89.76;93791.09;5075928;28;19957;-75
2021/11/27 02:31:50;;;;;;;;;;;;;;;-0.02;89.65;93791.66;5093585;28;19957;-75
2021/11/27 02:34:16;;;;;;;;;;;;;;;0.02;89.38;93788.63;5093653;28;20453;-75
2021/11/27 02:36:45;;;;;;;;;;;;;;;0.05;89.44;93785.63;5097561;28;20003;-75
2021/11/27 02:39:11;;;;;;;;;;;;;;;0.08;89.21;93777.47;5097523;28;19946;-76
2021/11/27 02:41:38;;;;;;;;;;;;;;;0.09;89.33;93781.63;5097569;28;19959;-76
2021/11/27 02:44:06;;;;;;;;;;;;;;;0.10;89.11;93786.53;5097637;28;19946;-75
2021/11/27 02:46:32;;;;;;;;;;;;;;;0.11;89.11;93775.25;5097633;28;20418;-75
2021/11/27 02:48:58;;;;;;;;;;;;;;;0.14;89.33;93772.22;5097326;28;19953;-75
2021/11/27 02:51:24;;;;;;;;;;;;;;;0.16;89.40;93769.44;5097456;28;19990;-75
2021/11/27 02:53:50;;;;;;;;;;;;;;;0.16;89.46;93762.47;5097315;28;19980;-75
2021/11/27 02:56:16;;;;;;;;;;;;;;;0.16;89.15;93757.31;5097266;28;20384;-75
2021/11/27 02:58:42;;;;;;;;;;;;;;;0.19;89.13;93764.63;5097100;28;20003;-75
2021/11/27 03:01:09;;;;;;;;;;;;;;;0.18;89.55;93763.03;5097341;28;19956;-75
2021/11/27 03:03:35;;;;;;;;;;;;;;;0.20;89.33;93760.25;5096965;28;19954;-75
2021/11/27 03:06:02;;;;;;;;;;;;;;;0.18;89.84;93765.63;5097552;28;19954;-76
2021/11/27 03:08:28;;;;;;;;;;;;;;;0.19;90.25;93767.22;5096466;28;19962;-75
2021/11/27 03:10:54;;;;;;;;;;;;;;;0.20;90.28;93750.72;5096929;28;19958;-75
2021/11/27 03:13:32;;;;;;;;;;;;;;;0.22;90.30;93758.25;5096925;28;20445;-75
2021/11/27 03:15:58;;;;;;;;;;;;;;;0.23;91.06;93759.03;5065462;28;20317;-75
2021/11/27 03:18:23;;;;;;;;;;;;;;;0.22;91.45;93755.69;5096888;28;19947;-75
2021/11/27 03:20:53;;;;;;;;;;;;;;;0.20;92.07;93766.19;5096736;28;19997;-75
2021/11/27 03:23:20;;;;;;;;;;;;;;;0.17;92.42;93756.34;5097234;28;20357;-75
2021/11/27 03:25:46;;;;;;;;;;;;;;;0.16;92.87;93754.75;5096788;28;19960;-75
2021/11/27 03:28:12;;;;;;;;;;;;;;;0.18;92.58;93765.63;5095859;28;19961;-75
2021/11/27 03:30:38;;;;;;;;;;;;;;;0.18;92.89;93747.59;5096714;28;19996;-75
2021/11/27 03:33:04;;;;;;;;;;;;;;;0.18;93.13;93757.91;5095239;28;20447;-75
2021/11/27 03:35:30;;;;;;;;;;;;;;;0.15;93.43;93755.78;5096451;28;20346;-75
2021/11/27 03:37:56;;;;;;;;;;;;;;;0.14;94.30;93759.34;5077449;28;20297;-75
2021/11/27 03:40:23;;;;;;;;;;;;;;;0.10;94.87;93747.91;5096533;28;20049;-75
2021/11/27 03:42:49;;;;;;;;;;;;;;;0.10;94.46;93753.03;5095491;28;19951;-75
2021/11/27 03:45:18;;;;;;;;;;;;;;;0.11;94.74;93741.75;5096463;28;19957;-75
2021/11/27 03:47:59;;;;;;;;;;;;;;;0.14;94.21;93745.69;5095514;28;19950;-75
2021/11/27 03:50:29;;;;;;;;;;;;;;;0.15;93.94;93753.19;5067467;28;19947;-75
2021/11/27 03:52:55;;;;;;;;;;;;;;;0.18;94.35;93752.75;5096119;28;19971;-75
2021/11/27 03:55:21;;;;;;;;;;;;;;;0.20;94.28;93755.88;5096173;28;20319;-75
2021/11/27 03:57:47;;;;;;;;;;;;;;;0.20;94.18;93760.25;5078099;28;19962;-74
2021/11/27 04:00:13;;;;;;;;;;;;;;;0.22;94.69;93765.97;5096162;28;19957;-75
2021/11/27 04:02:39;;;;;;;;;;;;;;;0.20;94.60;93749.94;5077883;28;19956;-75
2021/11/27 04:05:05;;;;;;;;;;;;;;;0.20;94.26;93755.88;5096183;28;20028;-75
2021/11/27 04:07:31;;;;;;;;;;;;;;;0.22;94.45;93750.53;5077667;28;19958;-75
2021/11/27 04:09:57;;;;;;;;;;;;;;;0.23;94.04;93759.81;5095929;28;20006;-77
2021/11/27 04:12:23;;;;;;;;;;;;;;;0.24;94.71;93753.66;5095773;28;19963;-75
2021/11/27 04:14:48;;;;;;;;;;;;;;;0.23;94.22;93746.91;5095952;28;20029;-75
2021/11/27 04:17:14;;;;;;;;;;;;;;;0.25;93.89;93754.44;5096379;28;19956;-75
2021/11/27 04:19:40;;;;;;;;;;;;;;;0.27;93.79;93753.22;5095806;28;19952;-76
2021/11/27 04:22:06;;;;;;;;;;;;;;;0.28;94.07;93757.38;5095836;28;20043;-75
2021/11/27 04:24:32;;;;;;;;;;;;;;;0.30;94.24;93757.94;5095643;28;20371;-78
2021/11/27 04:26:58;;;;;;;;;;;;;;;0.30;94.51;93752.00;5095478;28;19959;-75
2021/11/27 04:29:24;;;;;;;;;;;;;;;0.30;95.03;93752.00;5095915;28;19951;-75
2021/11/27 04:31:50;;;;;;;;;;;;;;;0.29;94.43;93753.00;5095392;28;19979;-75
2021/11/27 04:34:16;;;;;;;;;;;;;;;0.30;95.06;93754.59;5077498;28;20432;-75
2021/11/27 04:36:41;;;;;;;;;;;;;;;0.28;95.91;93764.31;5094398;28;19955;-75
2021/11/27 04:39:07;;;;;;;;;;;;;;;0.26;95.71;93768.91;5095222;28;19959;-76
2021/11/27 04:41:33;;;;;;;;;;;;;;;0.26;95.41;93761.19;5095353;28;20036;-76
2021/11/27 04:43:59;;;;;;;;;;;;;;;0.28;95.30;93766.91;5094855;28;19958;-75
2021/11/27 04:46:25;;;;;;;;;;;;;;;0.30;95.20;93770.03;5095041;28;20474;-75
2021/11/27 04:48:51;;;;;;;;;;;;;;;0.30;95.27;93764.91;5095412;28;19961;-75
2021/11/27 04:51:17;;;;;;;;;;;;;;;0.29;95.87;93764.09;5095102;28;19967;-75
2021/11/27 04:53:43;;;;;;;;;;;;;;;0.29;95.99;93766.66;5094989;28;20038;-76
2021/11/27 04:56:10;;;;;;;;;;;;;;;0.31;95.35;93772.38;5095152;28;19968;-75
2021/11/27 04:58:35;;;;;;;;;;;;;;;0.35;95.72;93770.94;5094110;28;19956;-75
2021/11/27 05:01:02;;;;;;;;;;;;;;;0.36;95.88;93777.69;5094973;28;20035;-75
2021/11/27 05:03:28;;;;;;;;;;;;;;;0.38;95.51;93772.31;5094948;28;19956;-75
2021/11/27 05:05:54;;;;;;;;;;;;;;;0.39;95.12;93769.50;5094889;28;19954;-75
2021/11/27 05:08:22;;;;;;;;;;;;;;;0.38;95.41;93770.50;5093949;28;20369;-76
2021/11/27 05:10:48;;;;;;;;;;;;;;;0.38;95.02;93778.25;5094820;28;19958;-76
2021/11/27 05:13:14;;;;;;;;;;;;;;;0.42;94.91;93776.03;5094582;28;19962;-75
2021/11/27 05:15:41;;;;;;;;;;;;;;;0.43;95.63;93776.81;5094789;28;20445;-76
2021/11/27 05:18:07;;;;;;;;;;;;;;;0.41;95.20;93771.88;5094629;28;20446;-75
2021/11/27 05:20:33;;;;;;;;;;;;;;;0.40;95.46;93770.31;5094592;28;20419;-75
2021/11/27 05:22:59;;;;;;;;;;;;;;;0.43;95.45;93785.31;5076212;28;19945;-76
2021/11/27 05:25:25;;;;;;;;;;;;;;;0.42;96.16;93782.94;5094349;28;19958;-76
2021/11/27 05:27:50;;;;;;;;;;;;;;;0.43;95.41;93787.13;5094521;28;20337;-76
2021/11/27 05:30:16;;;;;;;;;;;;;;;0.43;95.95;93785.31;5094895;28;20002;-75
2021/11/27 05:33:06;;;;;;;;;;;;;;;0.46;95.42;93791.81;5094581;28;19988;-76
2021/11/27 05:35:33;;;;;;;;;;;;;;;0.46;95.64;93790.00;5094219;28;19971;-75
2021/11/27 05:38:00;;;;;;;;;;;;;;;0.47;95.63;93785.66;5094287;28;19950;-75
2021/11/27 05:40:26;;;;;;;;;;;;;;;0.46;95.23;93792.59;5094076;28;19950;-76
2021/11/27 05:42:52;;;;;;;;;;;;;;;0.45;95.92;93790.25;5094210;28;19956;-78
2021/11/27 05:45:19;;;;;;;;;;;;;;;0.43;95.66;93785.31;5094240;28;20312;-75
2021/11/27 05:47:45;;;;;;;;;;;;;;;0.44;95.25;93792.03;5094161;28;19955;-75
2021/11/27 05:50:11;;;;;;;;;;;;;;;0.45;96.11;93790.25;5093079;28;19956;-75
2021/11/27 05:52:37;;;;;;;;;;;;;;;0.44;95.56;93797.19;5093775;28;20323;-75
2021/11/27 05:55:04;;;;;;;;;;;;;;;0.46;95.39;93790.00;5093881;28;20054;-75
2021/11/27 05:57:30;;;;;;;;;;;;;;;0.50;94.99;93805.84;5093941;28;19957;-75
2021/11/27 05:59:56;;;;;;;;;;;;;;;0.49;94.56;93796.53;5076109;28;19965;-75
2021/11/27 06:02:22;;;;;;;;;;;;;;;0.47;95.00;93793.41;5093915;28;20412;-75
2021/11/27 06:04:50;;;;;;;;;;;;;;;0.48;94.93;93787.22;5093753;28;20386;-76
2021/11/27 06:07:16;;;;;;;;;;;;;;;0.50;95.27;93790.38;5094193;28;19954;-75
2021/11/27 06:09:42;;;;;;;;;;;;;;;0.51;95.67;93790.16;5093180;28;19982;-75
2021/11/27 06:12:08;;;;;;;;;;;;;;;0.50;95.15;93795.53;5093780;28;20400;-75
2021/11/27 06:14:34;;;;;;;;;;;;;;;0.54;95.18;93794.88;5093835;28;19987;-75
2021/11/27 06:17:00;;;;;;;;;;;;;;;0.56;95.09;93800.59;5093645;28;19965;-75
2021/11/27 06:19:26;;;;;;;;;;;;;;;0.56;95.24;93808.31;5093561;28;19962;-75
2021/11/27 06:21:52;;;;;;;;;;;;;;;0.55;95.19;93816.28;5075831;28;19957;-75
2021/11/27 06:24:18;;;;;;;;;;;;;;;0.56;95.21;93817.84;5093523;28;20023;-75
2021/11/27 06:26:44;;;;;;;;;;;;;;;0.53;95.87;93821.66;5093681;28;19970;-75
2021/11/27 06:29:10;;;;;;;;;;;;;;;0.50;95.78;93824.66;5093672;28;20001;-77
2021/11/27 06:31:35;;;;;;;;;;;;;;;0.48;96.26;93825.91;5093652;28;20365;-75
2021/11/27 06:34:01;;;;;;;;;;;;;;;0.47;95.98;93824.34;5093299;28;20030;-75
2021/11/27 06:36:27;;;;;;;;;;;;;;;0.47;95.91;93821.75;5093360;28;19999;-75
2021/11/27 06:38:53;;;;;;;;;;;;;;;0.46;95.46;93818.38;5093822;28;20014;-75
2021/11/27 06:41:19;;;;;;;;;;;;;;;0.47;95.92;93819.19;5093262;28;20038;-75
2021/11/27 06:43:45;;;;;;;;;;;;;;;0.47;95.65;93819.97;5093611;28;20069;-75
2021/11/27 06:46:11;;;;;;;;;;;;;;;0.49;95.87;93820.53;5093548;28;19960;-75
2021/11/27 06:48:37;;;;;;;;;;;;;;;0.49;95.99;93819.75;5093695;28;20011;-75
2021/11/27 06:51:03;;;;;;;;;;;;;;;0.52;95.40;93827.03;5093705;28;20004;-75
2021/11/27 06:53:29;;;;;;;;;;;;;;;0.54;95.34;93830.97;5093419;28;19985;-75
2021/11/27 06:55:55;;;;;;;;;;;;;;;0.53;95.33;93826.81;5093587;28;20426;-76
2021/11/27 06:58:21;;;;;;;;;;;;;;;0.52;95.15;93838.13;5093183;28;19967;-75
2021/11/27 07:00:47;;;;;;;;;;;;;;;0.56;95.17;93833.31;5093425;28;19956;-77
2021/11/27 07:03:13;;;;;;;;;;;;;;;0.57;94.41;93838.28;5092135;28;20395;-75
2021/11/27 07:05:39;;;;;;;;;;;;;;;0.57;95.06;93846.00;5093200;28;20001;-75
2021/11/27 07:08:05;;;;;;;;;;;;;;;0.53;95.30;93847.44;5091854;28;19960;-75
2021/11/27 07:10:31;;;;;;;;;;;;;;;0.50;95.37;93850.44;5093803;28;19964;-75
2021/11/27 07:12:59;;;;;;;;;;;;;;;0.51;94.72;93857.19;5075317;28;20013;-75
2021/11/27 07:15:25;;;;;;;;;;;;;;;0.49;95.66;93859.19;5093157;28;19955;-77
2021/11/27 07:17:51;;;;;;;;;;;;;;;0.48;95.21;93867.16;5091775;28;20046;-75
2021/11/27 07:20:16;;;;;;;;;;;;;;;0.48;95.32;93869.72;5093528;28;19951;-75
2021/11/27 07:22:42;;;;;;;;;;;;;;;0.47;96.66;93881.84;5096673;28;19996;-75
2021/11/27 07:25:08;;;;;;;;;;;;;;;0.44;96.68;93884.84;5096822;28;20377;-75
2021/11/27 07:27:34;;;;;;;;;;;;;;;0.44;96.62;93889.22;5096687;28;19958;-75
2021/11/27 07:30:00;;;;;;;;;;;;;;;0.46;96.75;93889.78;5096913;28;20297;-75
2021/11/27 07:32:26;;;;;;;;;;;;;;;0.50;96.39;93893.50;5096528;28;19962;-75
2021/11/27 07:34:52;;;;;;;;;;;;;;;0.56;96.42;93896.00;5096981;28;19975;-75
2021/11/27 07:37:18;;;;;;;;;;;;;;;0.58;95.81;93895.78;5095493;28;20418;-75
2021/11/27 07:39:44;;;;;;;;;;;;;;;0.63;95.71;93901.09;5095546;28;19962;-75
2021/11/27 07:42:10;;;;;;;;;;;;;;;0.67;95.57;93904.78;5078595;28;20058;-75
2021/11/27 07:44:36;;;;;;;;;;;;;;;0.70;95.65;93901.78;5096670;28;19961;-75
2021/11/27 07:47:02;;;;;;;;;;;;;;;0.74;95.46;93907.28;5097018;28;20430;-75
2021/11/27 07:49:28;;;;;;;;;;;;;;;0.79;95.06;93908.19;5096271;28;19962;-75
2021/11/27 07:51:53;;;;;;;;;;;;;;;0.90;94.87;93911.03;5096696;28;20032;-75
2021/11/27 07:54:19;;;;;;;;;;;;;;;0.97;94.29;93907.34;5095901;28;20338;-75
2021/11/27 07:56:46;;;;;;;;;;;;;;;1.00;94.01;93908.69;5096462;28;19961;-75
2021/11/27 07:59:12;;;;;;;;;;;;;;;1.03;93.82;93903.13;5095945;28;20339;-78
2021/11/27 08:01:38;;;;;;;;;;;;;;;1.08;93.65;93908.38;5096065;28;19958;-75
2021/11/27 08:04:04;;;;;;;;;;;;;;;1.20;93.92;93918.75;5096123;28;19957;-75
2021/11/27 08:06:30;;;;;;;;;;;;;;;1.63;93.74;93912.50;5095932;28;20017;-74
2021/11/27 08:08:56;;;;;;;;;;;;;;;2.17;92.59;93914.94;5096128;28;19975;-74
2021/11/27 08:11:25;;;;;;;;;;;;;;;2.56;89.22;93913.38;5078288;28;19949;-74
2021/11/27 08:13:51;;;;;;;;;;;;;;;2.62;88.14;93920.22;5095606;28;19960;-73
2021/11/27 08:16:17;;;;;;;;;;;;;;;2.53;87.81;93919.00;5095853;28;20320;-74
2021/11/27 08:18:43;;;;;;;;;;;;;;;2.54;87.67;93919.78;5095889;28;19959;-74
2021/11/27 08:21:09;;;;;;;;;;;;;;;2.62;88.34;93919.41;5095670;28;19977;-74
2021/11/27 08:23:35;;;;;;;;;;;;;;;2.64;87.07;93917.38;5095961;28;19951;-74
2021/11/27 08:26:01;;;;;;;;;;;;;;;2.46;86.86;93917.53;5094746;28;19959;-74
2021/11/27 08:28:27;;;;;;;;;;;;;;;2.28;87.48;93921.09;5095664;28;19947;-74
2021/11/27 08:30:53;;;;;;;;;;;;;;;2.14;88.30;93925.72;5095444;28;19955;-74
2021/11/27 08:33:19;;;;;;;;;;;;;;;2.02;88.63;93926.53;5095141;28;19951;-74
2021/11/27 08:35:45;;;;;;;;;;;;;;;1.93;88.86;93925.31;5094317;28;19966;-74
2021/11/27 08:38:11;;;;;;;;;;;;;;;1.89;89.78;93933.72;5095371;28;19952;-74
2021/11/27 08:40:37;;;;;;;;;;;;;;;1.93;90.26;93929.66;5094291;28;19959;-74
2021/11/27 08:43:03;;;;;;;;;;;;;;;1.95;90.45;93938.78;5095274;28;19960;-74
2021/11/27 08:45:29;;;;;;;;;;;;;;;1.98;90.32;93943.50;5095400;28;19959;-75
2021/11/27 08:47:55;;;;;;;;;;;;;;;2.07;90.66;93945.72;5095416;28;19955;-75
2021/11/27 08:50:21;;;;;;;;;;;;;;;2.14;90.02;93939.44;5095691;28;19956;-74
2021/11/27 08:52:47;;;;;;;;;;;;;;;2.17;89.62;93940.78;5094253;28;20427;-76
2021/11/27 08:55:13;;;;;;;;;;;;;;;2.16;89.63;93946.94;5094898;28;20460;-74
2021/11/27 08:57:39;;;;;;;;;;;;;;;2.13;89.39;93953.38;5095049;28;20063;-74
2021/11/27 09:00:07;;;;;;;;;;;;;;;2.14;90.00;93954.97;5094993;28;20002;-74
2021/11/27 09:02:33;;;;;;;;;;;;;;;2.17;89.69;93949.31;5094991;28;19944;-75
2021/11/27 09:04:59;;;;;;;;;;;;;;;2.23;89.65;93961.34;5094870;28;19996;-74
2021/11/27 09:07:25;;;;;;;;;;;;;;;2.27;90.33;93961.69;5094923;28;19947;-74
2021/11/27 09:09:51;;;;;;;;;;;;;;;2.28;90.04;93965.81;5076735;28;20470;-74
2021/11/27 09:12:19;;;;;;;;;;;;;;;2.29;90.11;93975.16;5094580;28;19990;-74
2021/11/27 09:14:46;;;;;;;;;;;;;;;2.27;89.51;93974.59;5094658;28;19964;-74
2021/11/27 09:17:12;;;;;;;;;;;;;;;2.22;89.96;93967.50;5094644;28;19958;-74
2021/11/27 09:19:38;;;;;;;;;;;;;;;2.26;90.75;93972.25;5094829;28;19967;-74
2021/11/27 09:22:04;;;;;;;;;;;;;;;2.28;90.59;93962.47;5094901;28;19958;-74
2021/11/27 09:24:31;;;;;;;;;;;;;;;2.30;91.82;93970.78;5094600;28;20451;-74
2021/11/27 09:26:57;;;;;;;;;;;;;;;2.30;91.30;93961.22;5094298;28;19983;-74
2021/11/27 09:29:23;;;;;;;;;;;;;;;2.36;91.40;93967.28;5094735;28;20331;-74
2021/11/27 09:31:49;;;;;;;;;;;;;;;2.41;90.76;93962.97;5094394;28;19964;-75
2021/11/27 09:34:16;;;;;;;;;;;;;;;2.52;91.11;93963.19;5094232;28;20375;-75
2021/11/27 09:36:43;;;;;;;;;;;;;;;2.59;90.63;93950.94;5094369;28;19956;-74
2021/11/27 09:39:10;;;;;;;;;;;;;;;2.74;90.11;93950.44;5076119;28;19953;-75
2021/11/27 09:41:38;;;;;;;;;;;;;;;2.96;90.62;93950.56;5094101;28;19954;-74
2021/11/27 09:44:05;;;;;;;;;;;;;;;3.20;90.43;93956.44;5093483;28;19960;-74
2021/11/27 09:46:32;;;;;;;;;;;;;;;3.36;89.02;93950.50;5094165;28;19969;-74
2021/11/27 09:49:01;;;;;;;;;;;;;;;3.49;88.33;93953.81;5094311;28;19957;-74
2021/11/27 09:51:28;;;;;;;;;;;;;;;3.55;88.35;93952.84;5093966;28;19956;-74
2021/11/27 09:53:55;;;;;;;;;;;;;;;3.58;85.83;93957.56;5093955;28;20523;-74
2021/11/27 09:56:23;;;;;;;;;;;;;;;3.52;86.54;93961.88;5093953;28;19951;-75
2021/11/27 09:58:49;;;;;;;;;;;;;;;3.49;87.05;93962.38;5094058;28;19949;-74
2021/11/27 10:01:15;;;;;;;;;;;;;;;3.50;87.81;93974.28;5093786;28;20440;-74
2021/11/27 10:03:49;;;;;;;;;;;;;;;3.48;87.13;93968.56;5093883;28;19965;-74
2021/11/27 10:06:21;;;;;;;;;;;;;;;3.44;87.05;93970.84;5093763;28;20311;-74
2021/11/27 10:08:47;;;;;;;;;;;;;;;3.41;86.88;93970.53;5075855;28;19957;-74
2021/11/27 10:11:13;;;;;;;;;;;;;;;3.36;87.12;93970.41;5075754;28;19953;-75
2021/11/27 10:13:39;;;;;;;;;;;;;;;3.32;86.96;93967.53;5093664;28;20415;-75
2021/11/27 10:16:05;;;;;;;;;;;;;;;3.28;86.57;93968.22;5093905;28;19957;-74
2021/11/27 10:18:31;;;;;;;;;;;;;;;3.20;85.58;93961.63;5093973;28;19961;-74
2021/11/27 10:21:12;;;;;;;;;;;;;;;3.14;86.04;93965.91;5093535;28;19979;-74
2021/11/27 10:23:39;;;;;;;;;;;;;;;3.07;86.50;93972.25;5094263;28;20338;-75
2021/11/27 10:26:05;;;;;;;;;;;;;;;3.05;86.99;93967.31;5093570;28;20412;-75
2021/11/27 10:28:31;;;;;;;;;;;;;;;3.07;86.52;93978.22;5093926;28;19971;-74
2021/11/27 10:31:00;;;;;;;;;;;;;;;3.07;86.97;93986.00;5093651;28;20015;-75
2021/11/27 10:33:26;;;;;;;;;;;;;;;3.11;87.62;93983.72;5066000;28;19950;-75
2021/11/27 10:35:52;;;;;;;;;;;;;;;3.14;86.66;93983.25;5093499;28;20001;-74
2021/11/27 10:38:19;;;;;;;;;;;;;;;3.15;85.79;94001.16;5093552;28;20401;-74
2021/11/27 10:40:54;;;;;;;;;;;;;;;3.10;85.32;94000.28;5075531;28;19960;-75
2021/11/27 10:43:20;;;;;;;;;;;;;;;3.04;84.98;94001.97;5093648;28;19950;-74
2021/11/27 10:45:47;;;;;;;;;;;;;;;3.01;85.88;93995.47;5093516;28;19957;-75
2021/11/27 10:48:13;;;;;;;;;;;;;;;3.00;86.04;94004.25;5093541;28;19957;-75
2021/11/27 10:50:39;;;;;;;;;;;;;;;3.01;86.72;94003.22;5093440;28;19995;-75
2021/11/27 10:53:11;;;;;;;;;;;;;;;3.00;86.39;94009.44;5093308;28;20049;-75
2021/11/27 10:55:39;;;;;;;;;;;;;;;3.00;86.55;94013.81;5094574;28;19982;-75
2021/11/27 10:58:07;;;;;;;;;;;;;;;3.00;86.68;94017.19;5097270;28;19979;-75
2021/11/27 11:00:35;;;;;;;;;;;;;;;3.00;86.14;94013.81;5097345;28;19956;-75
2021/11/27 11:03:02;;;;;;;;;;;;;;;2.96;86.26;94018.69;5097455;28;19950;-74
2021/11/27 11:05:31;;;;;;;;;;;;;;;2.96;86.79;94017.88;5097062;28;19955;-74
2021/11/27 11:07:57;;;;;;;;;;;;;;;2.93;85.87;94021.72;5097301;28;19949;-74
2021/11/27 11:10:25;;;;;;;;;;;;;;;2.88;84.88;94015.63;5097249;28;19951;-74
2021/11/27 11:12:52;;;;;;;;;;;;;;;2.86;85.93;94023.66;5097128;28;19965;-74
2021/11/27 11:15:18;;;;;;;;;;;;;;;2.85;85.74;94024.66;5096803;28;19968;-74
2021/11/27 11:17:45;;;;;;;;;;;;;;;2.84;86.18;94025.69;5096886;28;20465;-74
2021/11/27 11:20:18;;;;;;;;;;;;;;;2.91;86.29;94034.09;5097067;28;19959;-75
2021/11/27 11:23:03;;;;;;;;;;;;;;;2.97;86.60;94030.59;5097009;28;20423;-74
2021/11/27 11:25:30;;;;;;;;;;;;;;;3.05;87.00;94025.06;5096844;28;19967;-76
2021/11/27 11:27:58;;;;;;;;;;;;;;;3.19;86.71;94022.19;5095617;28;19967;-75
2021/11/27 11:30:34;;;;;;;;;;;;;;;3.28;85.65;94020.03;5075231;28;20362;-76
2021/11/27 11:33:00;;;;;;;;;;;;;;;3.32;85.10;94026.28;5097146;28;20402;-74
2021/11/27 11:35:26;;;;;;;;;;;;;;;3.34;85.35;94027.66;5096490;28;20470;-74
2021/11/27 11:37:52;;;;;;;;;;;;;;;3.37;85.47;94034.94;5096574;28;19964;-75
2021/11/27 11:40:18;;;;;;;;;;;;;;;3.38;84.58;94033.94;5096832;28;19954;-75
2021/11/27 11:42:44;;;;;;;;;;;;;;;3.35;84.94;94031.81;5078261;28;19954;-74
2021/11/27 11:45:10;;;;;;;;;;;;;;;3.30;85.29;94033.50;5097057;28;20353;-74
2021/11/27 11:47:36;;;;;;;;;;;;;;;3.27;85.88;94028.81;5078372;28;19971;-75
2021/11/27 11:50:04;;;;;;;;;;;;;;;3.20;85.18;94023.75;5096312;28;19959;-75
2021/11/27 11:52:34;;;;;;;;;;;;;;;3.18;85.34;94018.03;5096111;28;20362;-75
2021/11/27 11:55:03;;;;;;;;;;;;;;;3.13;85.26;94004.97;5096125;28;19977;-75
2021/11/27 11:57:48;;;;;;;;;;;;;;;3.16;85.61;94010.50;5096311;28;19967;-74
2021/11/27 12:00:34;;;;;;;;;;;;;;;3.22;86.45;94012.16;5096074;28;19955;-74
2021/11/27 12:03:22;;;;;;;;;;;;;;;3.34;85.96;94026.84;5095620;28;19958;-75
2021/11/27 12:05:54;;;;;;;;;;;;;;;3.44;84.69;94033.03;5074328;28;19954;-74
2021/11/27 12:08:39;;;;;;;;;;;;;;;3.48;85.03;94048.88;5076843;28;19958;-75
2021/11/27 12:11:05;;;;;;;;;;;;;;;3.52;85.36;94051.78;5094854;28;19960;-75
2021/11/27 12:13:33;;;;;;;;;;;;;;;3.58;85.21;94053.44;5095843;28;20048;-74
2021/11/27 12:16:09;;;;;;;;;;;;;;;3.60;84.83;94051.41;5096674;28;20411;-75
2021/11/27 12:18:35;;;;;;;;;;;;;;;3.66;84.29;94056.44;5096260;28;19959;-74
2021/11/27 12:21:01;;;;;;;;;;;;;;;3.83;85.01;94059.06;5095800;28;20431;-74
2021/11/27 12:23:40;;;;;;;;;;;;;;;4.09;84.75;94056.88;5095494;28;19968;-74
2021/11/27 12:26:11;;;;;;;;;;;;;;;4.26;83.63;94062.84;5095804;28;20025;-74
2021/11/27 12:28:38;;;;;;;;;;;;;;;4.27;81.82;94055.84;5095546;28;19949;-75
2021/11/27 12:31:11;;;;;;;;;;;;;;;4.28;82.80;94062.59;5077642;28;19960;-75
2021/11/27 12:33:44;;;;;;;;;;;;;;;4.15;81.11;94062.94;5095686;28;19956;-75
2021/11/27 12:36:25;;;;;;;;;;;;;;;3.92;80.80;94061.28;5095265;28;20314;-75
2021/11/27 12:39:05;;;;;;;;;;;;;;;3.73;81.67;94066.66;5095828;28;19963;-74
2021/11/27 12:41:37;;;;;;;;;;;;;;;3.47;83.47;94080.22;5076667;28;19954;-74
2021/11/27 12:44:11;;;;;;;;;;;;;;;3.22;84.03;94086.47;5095519;28;19954;-74
2021/11/27 12:46:38;;;;;;;;;;;;;;;2.90;83.85;94111.97;5095259;28;19956;-76
2021/11/27 12:49:04;;;;;;;;;;;;;;;2.56;83.48;94112.56;5095585;28;19952;-74
2021/11/27 12:51:30;;;;;;;;;;;;;;;2.31;84.45;94094.69;5095305;28;19959;-77
2021/11/27 12:53:59;;;;;;;;;;;;;;;2.07;84.72;94080.16;5094145;28;19988;-74